Clean Ocean — WDE7605 — position and weather

sailwx.info

Track history (hours):
 
Tides and Currents Weather Stations Pressure Air Temp Water Temp Dewpoint Dewpoint Depression Visibility Wind Speed Wind Dir Waves Ship Positions

Clean Ocean

Owner: Meston Offshore, Ventura, CA. More information available from US FCC via Universal Licensing System and Coast Guard Vessel Documentation Center.

Last reported at 2017-Nov-20 00:28 UTC. Time now 2017-Nov-21 10:26 UTC.
Position N 33°44' W 118°16'.

Length 44 m; draft 2.5 m.

Type: Other ship. MMSI: 367395280.

Date/timePositionNaut miles runAvg speedWind from/ knotsBaromVisibWave heightAir tempDewpointWater temp
2017-Nov-20 00:28N 33°44' W 118°16'0 0.0
2017-Nov-19 22:10N 33°44' W 118°16'0 0.0
2017-Nov-19 20:22N 33°44' W 118°16'0 0.0
2017-Nov-19 19:58N 33°44' W 118°16'0 0.0
2017-Nov-19 19:28N 33°44' W 118°16'0 0.0
2017-Nov-19 18:58N 33°44' W 118°16'0 0.0
2017-Nov-19 17:04N 33°44' W 118°16'0 0.0
2017-Nov-19 16:58N 33°44' W 118°16'0 0.0
2017-Nov-19 16:22N 33°44' W 118°16'0 0.0
2017-Nov-19 11:04N 33°44' W 118°16'0 0.0
2017-Nov-19 10:52N 33°44' W 118°16'0 0.0
2017-Nov-19 10:16N 33°44' W 118°16'0 0.0
2017-Nov-19 09:58N 33°44' W 118°16'0 0.0
2017-Nov-19 09:22N 33°44' W 118°16'0 0.0
2017-Nov-19 08:58N 33°44' W 118°16'0 0.0
2017-Nov-19 08:28N 33°44' W 118°16'0 0.0
2017-Nov-19 07:58N 33°44' W 118°16'0 0.0
2017-Nov-19 07:10N 33°44' W 118°16'0 0.0
2017-Nov-19 06:58N 33°44' W 118°16'0 0.0
2017-Nov-19 06:28N 33°44' W 118°16'0 0.0
2017-Nov-19 05:58N 33°44' W 118°16'0 0.0
2017-Nov-19 05:28N 33°44' W 118°16'0 0.0
2017-Nov-19 00:52N 33°44' W 118°16'0 0.0
2017-Nov-19 00:28N 33°44' W 118°16'0 0.0
2017-Nov-18 23:58N 33°44' W 118°16'0 0.0
2017-Nov-18 23:28N 33°44' W 118°16'0 0.0
2017-Nov-18 22:58N 33°44' W 118°16'0 0.0
2017-Nov-18 22:28N 33°44' W 118°16'0 0.0
2017-Nov-18 21:52N 33°44' W 118°16'0 0.0
2017-Nov-18 21:28N 33°44' W 118°16'0 0.0
2017-Nov-18 20:58N 33°44' W 118°16'0 0.0
2017-Nov-17 12:10N 33°44' W 118°16'0 0.0
2017-Nov-17 02:28N 33°44' W 118°16'0 0.0
2017-Nov-16 20:40N 33°44' W 118°16'0 0.0
2017-Nov-16 20:28N 33°44' W 118°16'0 0.0
2017-Nov-16 19:58N 33°44' W 118°16'0 0.0
2017-Nov-16 19:28N 33°44' W 118°16'0 0.0
2017-Nov-16 14:58N 33°44' W 118°16'0 0.0
2017-Nov-16 14:28N 33°44' W 118°16'0 0.0
2017-Nov-16 13:58N 33°44' W 118°16'0 0.0
2017-Nov-16 13:28N 33°44' W 118°16'0 0.0
2017-Nov-16 12:46N 33°44' W 118°16'0 0.0
2017-Nov-16 12:28N 33°44' W 118°16'0 0.0
2017-Nov-16 11:58N 33°44' W 118°16'0 0.0
2017-Nov-16 11:28N 33°44' W 118°16'0 0.0
2017-Nov-16 10:58N 33°44' W 118°16'0 0.0
2017-Nov-16 10:28N 33°44' W 118°16'0 0.0
2017-Nov-16 09:58N 33°44' W 118°16'0 0.0
2017-Nov-16 04:40N 33°44' W 118°16'0 0.0
2017-Nov-16 04:22N 33°44' W 118°16'0 0.0
2017-Nov-16 03:58N 33°44' W 118°16'0 0.0
2017-Nov-16 03:28N 33°44' W 118°16'0 0.0
2017-Nov-16 02:58N 33°44' W 118°16'0 0.0
2017-Nov-15 23:40N 33°44' W 118°16'0 0.0
2017-Nov-15 23:28N 33°44' W 118°16'0 0.0
2017-Nov-15 22:58N 33°44' W 118°16'0 0.0
2017-Nov-15 22:04N 33°44' W 118°16'0 0.1
2017-Nov-15 21:58N 33°44' W 118°16'0 0.0
2017-Nov-15 20:48N 33°44' W 118°16'0 0.1
2017-Nov-15 20:13N 33°44' W 118°16'1 3.9
2017-Nov-15 20:00N 33°43' W 118°16'3 5.9
2017-Nov-15 19:30N 33°41' W 118°18'4 8.7
2017-Nov-15 19:00N 33°43' W 118°23'5 9.1
2017-Nov-15 18:30N 33°45' W 118°28'4 9.0
2017-Nov-15 18:00N 33°47' W 118°33'5 8.9
2017-Nov-15 17:30N 33°49' W 118°38'5 9.1
2017-Nov-15 16:59N 33°51' W 118°43'4 8.8
2017-Nov-15 16:31N 33°53' W 118°47'4 8.9
2017-Nov-15 16:00N 33°55' W 118°52'4 8.6
2017-Nov-15 15:30N 33°58' W 118°56'4 8.8
2017-Nov-15 15:00N 34°00' W 119°01'4 8.6
2017-Nov-15 14:30N 34°02' W 119°05'4 8.4
2017-Nov-15 14:00N 34°05' W 119°09'4 8.3
2017-Nov-15 13:30N 34°08' W 119°13'1 1.2
2017-Nov-15 12:18N 34°09' W 119°12'0 0.0
2017-Nov-15 11:57N 34°09' W 119°12'0 0.0
2017-Nov-15 11:27N 34°09' W 119°12'0 0.0
2017-Nov-15 10:51N 34°09' W 119°12'0 0.1
2017-Nov-15 10:30N 34°09' W 119°12'4 7.2
2017-Nov-15 09:58N 34°08' W 119°17'4 9.1
2017-Nov-15 09:31N 34°09' W 119°22'5 9.1
2017-Nov-15 08:59N 34°10' W 119°27'5 9.0
2017-Nov-15 08:27N 34°11' W 119°33'4 8.7
2017-Nov-15 07:57N 34°13' W 119°38'4 8.7
2017-Nov-15 07:31N 34°14' W 119°42'5 8.4
2017-Nov-15 06:58N 34°15' W 119°48'4 8.5
2017-Nov-15 06:30N 34°16' W 119°52'4 8.8
2017-Nov-15 06:00N 34°17' W 119°57'4 8.7
2017-Nov-15 05:29N 34°19' W 120°02'5 8.9
2017-Nov-15 04:58N 34°20' W 120°08'5 9.0
2017-Nov-15 04:26N 34°21' W 120°13'4 8.7
2017-Nov-15 03:58N 34°22' W 120°18'4 8.5
2017-Nov-15 03:29N 34°23' W 120°23'4 8.4
2017-Nov-15 03:00N 34°25' W 120°28'4 8.7
2017-Nov-15 02:31N 34°26' W 120°33'4 8.8
2017-Nov-15 02:01N 34°27' W 120°38'3 5.2
2017-Nov-15 01:30N 34°28' W 120°41'1 2.6
2017-Nov-15 01:00N 34°29' W 120°42'2 4.0
2017-Nov-15 00:31N 34°31' W 120°42'5 9.4
2017-Nov-15 00:00N 34°36' W 120°43'1 2.0
2017-Nov-14 23:30N 34°37' W 120°44'0 0.0
2017-Nov-14 23:00N 34°37' W 120°44'0 0.0
2017-Nov-14 22:30N 34°37' W 120°44'0 0.0
2017-Nov-14 22:00N 34°37' W 120°44'0 0.0
2017-Nov-14 21:30N 34°37' W 120°44'0 0.0
2017-Nov-14 21:00N 34°37' W 120°44'0 0.0
2017-Nov-14 20:30N 34°37' W 120°44'0 0.0
2017-Nov-14 20:00N 34°37' W 120°44'0 0.0
2017-Nov-14 19:30N 34°37' W 120°44'0 0.0
2017-Nov-14 19:00N 34°37' W 120°44'0 0.0
2017-Nov-14 18:30N 34°37' W 120°44'0 0.1
2017-Nov-14 17:56N 34°37' W 120°44'0 0.0
2017-Nov-14 17:31N 34°37' W 120°44'0 0.0
2017-Nov-14 16:58N 34°37' W 120°44'2 4.3
2017-Nov-14 16:30N 34°35' W 120°44'4 7.7
2017-Nov-14 16:01N 34°31' W 120°42'1 2.7
2017-Nov-14 15:30N 34°30' W 120°42'2 3.7
2017-Nov-14 15:00N 34°28' W 120°41'1 1.2
2017-Nov-14 14:30N 34°28' W 120°40'2 3.3
2017-Nov-14 14:01N 34°27' W 120°38'1 2.2
2017-Nov-14 13:30N 34°27' W 120°37'3 5.9
2017-Nov-14 13:00N 34°25' W 120°34'4 7.8
2017-Nov-14 12:31N 34°24' W 120°30'4 8.0
2017-Nov-14 12:00N 34°23' W 120°25'4 8.0
2017-Nov-14 11:30N 34°22' W 120°20'5 8.1
2017-Nov-14 10:56N 34°21' W 120°15'4 8.1
2017-Nov-14 10:30N 34°20' W 120°11'4 7.8
2017-Nov-14 10:00N 34°19' W 120°06'4 7.7
2017-Nov-14 09:30N 34°18' W 120°02'4 7.8
2017-Nov-14 09:00N 34°17' W 119°57'4 8.3
2017-Nov-14 08:30N 34°16' W 119°52'4 8.1
2017-Nov-14 08:00N 34°15' W 119°48'4 8.1
2017-Nov-14 07:30N 34°14' W 119°43'5 8.1
2017-Nov-14 06:57N 34°12' W 119°38'4 8.0
2017-Nov-14 06:30N 34°12' W 119°33'4 7.9
2017-Nov-14 06:00N 34°10' W 119°29'4 7.4
2017-Nov-14 05:29N 34°09' W 119°25'4 7.5
2017-Nov-14 05:00N 34°08' W 119°20'4 7.6
2017-Nov-14 04:28N 34°08' W 119°15'3 6.1
2017-Nov-14 04:00N 34°09' W 119°12'0 0.1
2017-Nov-14 02:44N 34°09' W 119°12'0 0.0
2017-Nov-14 02:05N 34°09' W 119°12'0 0.0
2017-Nov-14 00:44N 34°09' W 119°12'0 0.0
2017-Nov-14 00:14N 34°09' W 119°12'0 0.0
2017-Nov-13 23:59N 34°09' W 119°12'0 0.0
2017-Nov-13 23:02N 34°09' W 119°12'0 0.0
2017-Nov-13 22:41N 34°09' W 119°12'53 2.2
2017-Nov-12 22:55N 33°44' W 118°16'0 0.0
2017-Nov-12 22:25N 33°44' W 118°16'  
Track history (hours):
 
Tides and Currents Weather Stations Pressure Air Temp Water Temp Dewpoint Dewpoint Depression Visibility Wind Speed Wind Dir Waves Ship Positions

Clean Ocean

Owner: Meston Offshore, Ventura, CA. More information available from US FCC via Universal Licensing System and Coast Guard Vessel Documentation Center.

Last reported at 2017-Nov-20 00:28 UTC. Time now 2017-Nov-21 10:26 UTC.
Position N 33°44' W 118°16'.

Length 44 m; draft 2.5 m.

Type: Other ship. MMSI: 367395280.

Date/timePositionNaut miles runAvg speedWind from/ knotsBaromVisibWave heightAir tempDewpointWater temp
2017-Nov-20 00:28N 33°44' W 118°16'0 0.0
2017-Nov-19 22:10N 33°44' W 118°16'0 0.0
2017-Nov-19 20:22N 33°44' W 118°16'0 0.0
2017-Nov-19 19:58N 33°44' W 118°16'0 0.0
2017-Nov-19 19:28N 33°44' W 118°16'0 0.0
2017-Nov-19 18:58N 33°44' W 118°16'0 0.0
2017-Nov-19 17:04N 33°44' W 118°16'0 0.0
2017-Nov-19 16:58N 33°44' W 118°16'0 0.0
2017-Nov-19 16:22N 33°44' W 118°16'0 0.0
2017-Nov-19 11:04N 33°44' W 118°16'0 0.0
2017-Nov-19 10:52N 33°44' W 118°16'0 0.0
2017-Nov-19 10:16N 33°44' W 118°16'0 0.0
2017-Nov-19 09:58N 33°44' W 118°16'0 0.0
2017-Nov-19 09:22N 33°44' W 118°16'0 0.0
2017-Nov-19 08:58N 33°44' W 118°16'0 0.0
2017-Nov-19 08:28N 33°44' W 118°16'0 0.0
2017-Nov-19 07:58N 33°44' W 118°16'0 0.0
2017-Nov-19 07:10N 33°44' W 118°16'0 0.0
2017-Nov-19 06:58N 33°44' W 118°16'0 0.0
2017-Nov-19 06:28N 33°44' W 118°16'0 0.0
2017-Nov-19 05:58N 33°44' W 118°16'0 0.0
2017-Nov-19 05:28N 33°44' W 118°16'0 0.0
2017-Nov-19 00:52N 33°44' W 118°16'0 0.0
2017-Nov-19 00:28N 33°44' W 118°16'0 0.0
2017-Nov-18 23:58N 33°44' W 118°16'0 0.0
2017-Nov-18 23:28N 33°44' W 118°16'0 0.0
2017-Nov-18 22:58N 33°44' W 118°16'0 0.0
2017-Nov-18 22:28N 33°44' W 118°16'0 0.0
2017-Nov-18 21:52N 33°44' W 118°16'0 0.0
2017-Nov-18 21:28N 33°44' W 118°16'0 0.0
2017-Nov-18 20:58N 33°44' W 118°16'0 0.0
2017-Nov-17 12:10N 33°44' W 118°16'0 0.0
2017-Nov-17 02:28N 33°44' W 118°16'0 0.0
2017-Nov-16 20:40N 33°44' W 118°16'0 0.0
2017-Nov-16 20:28N 33°44' W 118°16'0 0.0
2017-Nov-16 19:58N 33°44' W 118°16'0 0.0
2017-Nov-16 19:28N 33°44' W 118°16'0 0.0
2017-Nov-16 14:58N 33°44' W 118°16'0 0.0
2017-Nov-16 14:28N 33°44' W 118°16'0 0.0
2017-Nov-16 13:58N 33°44' W 118°16'0 0.0
2017-Nov-16 13:28N 33°44' W 118°16'0 0.0
2017-Nov-16 12:46N 33°44' W 118°16'0 0.0
2017-Nov-16 12:28N 33°44' W 118°16'0 0.0
2017-Nov-16 11:58N 33°44' W 118°16'0 0.0
2017-Nov-16 11:28N 33°44' W 118°16'0 0.0
2017-Nov-16 10:58N 33°44' W 118°16'0 0.0
2017-Nov-16 10:28N 33°44' W 118°16'0 0.0
2017-Nov-16 09:58N 33°44' W 118°16'0 0.0
2017-Nov-16 04:40N 33°44' W 118°16'0 0.0
2017-Nov-16 04:22N 33°44' W 118°16'0 0.0
2017-Nov-16 03:58N 33°44' W 118°16'0 0.0
2017-Nov-16 03:28N 33°44' W 118°16'0 0.0
2017-Nov-16 02:58N 33°44' W 118°16'0 0.0
2017-Nov-15 23:40N 33°44' W 118°16'0 0.0
2017-Nov-15 23:28N 33°44' W 118°16'0 0.0
2017-Nov-15 22:58N 33°44' W 118°16'0 0.0
2017-Nov-15 22:04N 33°44' W 118°16'0 0.1
2017-Nov-15 21:58N 33°44' W 118°16'0 0.0
2017-Nov-15 20:48N 33°44' W 118°16'0 0.1
2017-Nov-15 20:13N 33°44' W 118°16'1 3.9
2017-Nov-15 20:00N 33°43' W 118°16'3 5.9
2017-Nov-15 19:30N 33°41' W 118°18'4 8.7
2017-Nov-15 19:00N 33°43' W 118°23'5 9.1
2017-Nov-15 18:30N 33°45' W 118°28'4 9.0
2017-Nov-15 18:00N 33°47' W 118°33'5 8.9
2017-Nov-15 17:30N 33°49' W 118°38'5 9.1
2017-Nov-15 16:59N 33°51' W 118°43'4 8.8
2017-Nov-15 16:31N 33°53' W 118°47'4 8.9
2017-Nov-15 16:00N 33°55' W 118°52'4 8.6
2017-Nov-15 15:30N 33°58' W 118°56'4 8.8
2017-Nov-15 15:00N 34°00' W 119°01'4 8.6
2017-Nov-15 14:30N 34°02' W 119°05'4 8.4
2017-Nov-15 14:00N 34°05' W 119°09'4 8.3
2017-Nov-15 13:30N 34°08' W 119°13'1 1.2
2017-Nov-15 12:18N 34°09' W 119°12'0 0.0
2017-Nov-15 11:57N 34°09' W 119°12'0 0.0
2017-Nov-15 11:27N 34°09' W 119°12'0 0.0
2017-Nov-15 10:51N 34°09' W 119°12'0 0.1
2017-Nov-15 10:30N 34°09' W 119°12'4 7.2
2017-Nov-15 09:58N 34°08' W 119°17'4 9.1
2017-Nov-15 09:31N 34°09' W 119°22'5 9.1
2017-Nov-15 08:59N 34°10' W 119°27'5 9.0
2017-Nov-15 08:27N 34°11' W 119°33'4 8.7
2017-Nov-15 07:57N 34°13' W 119°38'4 8.7
2017-Nov-15 07:31N 34°14' W 119°42'5 8.4
2017-Nov-15 06:58N 34°15' W 119°48'4 8.5
2017-Nov-15 06:30N 34°16' W 119°52'4 8.8
2017-Nov-15 06:00N 34°17' W 119°57'4 8.7
2017-Nov-15 05:29N 34°19' W 120°02'5 8.9
2017-Nov-15 04:58N 34°20' W 120°08'5 9.0
2017-Nov-15 04:26N 34°21' W 120°13'4 8.7
2017-Nov-15 03:58N 34°22' W 120°18'4 8.5
2017-Nov-15 03:29N 34°23' W 120°23'4 8.4
2017-Nov-15 03:00N 34°25' W 120°28'4 8.7
2017-Nov-15 02:31N 34°26' W 120°33'4 8.8
2017-Nov-15 02:01N 34°27' W 120°38'3 5.2
2017-Nov-15 01:30N 34°28' W 120°41'1 2.6
2017-Nov-15 01:00N 34°29' W 120°42'2 4.0
2017-Nov-15 00:31N 34°31' W 120°42'5 9.4
2017-Nov-15 00:00N 34°36' W 120°43'1 2.0
2017-Nov-14 23:30N 34°37' W 120°44'0 0.0
2017-Nov-14 23:00N 34°37' W 120°44'0 0.0
2017-Nov-14 22:30N 34°37' W 120°44'0 0.0
2017-Nov-14 22:00N 34°37' W 120°44'0 0.0
2017-Nov-14 21:30N 34°37' W 120°44'0 0.0
2017-Nov-14 21:00N 34°37' W 120°44'0 0.0
2017-Nov-14 20:30N 34°37' W 120°44'0 0.0
2017-Nov-14 20:00N 34°37' W 120°44'0 0.0
2017-Nov-14 19:30N 34°37' W 120°44'0 0.0
2017-Nov-14 19:00N 34°37' W 120°44'0 0.0
2017-Nov-14 18:30N 34°37' W 120°44'0 0.1
2017-Nov-14 17:56N 34°37' W 120°44'0 0.0
2017-Nov-14 17:31N 34°37' W 120°44'0 0.0
2017-Nov-14 16:58N 34°37' W 120°44'2 4.3
2017-Nov-14 16:30N 34°35' W 120°44'4 7.7
2017-Nov-14 16:01N 34°31' W 120°42'1 2.7
2017-Nov-14 15:30N 34°30' W 120°42'2 3.7
2017-Nov-14 15:00N 34°28' W 120°41'1 1.2
2017-Nov-14 14:30N 34°28' W 120°40'2 3.3
2017-Nov-14 14:01N 34°27' W 120°38'1 2.2
2017-Nov-14 13:30N 34°27' W 120°37'3 5.9
2017-Nov-14 13:00N 34°25' W 120°34'4 7.8
2017-Nov-14 12:31N 34°24' W 120°30'4 8.0
2017-Nov-14 12:00N 34°23' W 120°25'4 8.0
2017-Nov-14 11:30N 34°22' W 120°20'5 8.1
2017-Nov-14 10:56N 34°21' W 120°15'4 8.1
2017-Nov-14 10:30N 34°20' W 120°11'4 7.8
2017-Nov-14 10:00N 34°19' W 120°06'4 7.7
2017-Nov-14 09:30N 34°18' W 120°02'4 7.8
2017-Nov-14 09:00N 34°17' W 119°57'4 8.3
2017-Nov-14 08:30N 34°16' W 119°52'4 8.1
2017-Nov-14 08:00N 34°15' W 119°48'4 8.1
2017-Nov-14 07:30N 34°14' W 119°43'5 8.1
2017-Nov-14 06:57N 34°12' W 119°38'4 8.0
2017-Nov-14 06:30N 34°12' W 119°33'4 7.9
2017-Nov-14 06:00N 34°10' W 119°29'4 7.4
2017-Nov-14 05:29N 34°09' W 119°25'4 7.5
2017-Nov-14 05:00N 34°08' W 119°20'4 7.6
2017-Nov-14 04:28N 34°08' W 119°15'3 6.1
2017-Nov-14 04:00N 34°09' W 119°12'0 0.1
2017-Nov-14 02:44N 34°09' W 119°12'0 0.0
2017-Nov-14 02:05N 34°09' W 119°12'0 0.0
2017-Nov-14 00:44N 34°09' W 119°12'0 0.0
2017-Nov-14 00:14N 34°09' W 119°12'0 0.0
2017-Nov-13 23:59N 34°09' W 119°12'0 0.0
2017-Nov-13 23:02N 34°09' W 119°12'0 0.0
2017-Nov-13 22:41N 34°09' W 119°12'53 2.2
2017-Nov-12 22:55N 33°44' W 118°16'0 0.0
2017-Nov-12 22:25N 33°44' W 118°16'  

Dump ship's entire track history